Bruker Corp (BRKR) Latest Bloomsberg Price


Mffais Ranking #2435 Overall / #25 Industry
Industry: Life Science Equipment

Number of Companies: 160 (Ranking #1074 Overall/#14 Industry)
Inflow: $ 44,106 (K) (Ranking #1366 Overall/#17 Industry)
Outflow: $ -124,790 (K)
Mffais Flow: $ -80,684 (K) (Ranking #2435 Overall/#25 Industry)


Owner CPOR Shares Action Qty Chg Invested (K) Total Current Value (K)
Nwq Investment Management Company Llc 2016-09-30 401,745 Added More 239,630 $ 5,727 $ 9,601
Granahan Investment Management Inc Ma 2016-09-30 734,150 Added More 235,000 $ 5,616 $ 17,546
Panagora Asset Management Inc 2016-09-30 544,419 Added More 209,871 $ 5,015 $ 13,011
Btim Corp 2016-09-30 879,891 Added More 180,800 $ 4,321 $ 21,029
Emerald Acquisition Ltd 2016-09-30 1,663,154 Added More 171,696 $ 4,103 $ 39,749
Chartwell Investment Partners Llc 2016-09-30 239,405 Added More 146,635 $ 3,504 $ 5,721
Northern Trust Corp 2016-09-30 609,610 Added More 81,441 $ 1,946 $ 14,569
Spark Investment Management Llc 2016-09-30 133,700 Added More 53,500 $ 1,278 $ 3,195
Tfs Capital Llc 2016-09-30 50,204 New Holding 50,204 $ 1,199 $ 1,199
Counsel Portfolio Services Inc 2016-06-30 48,426 New Holding 48,426 $ 1,101 $ 1,101
Segall Bryant Hamill Llc 2016-09-30 148,681 Added More 44,310 $ 1,059 $ 3,553
Jacobs Levy Equity Management Inc 2016-09-30 513,255 Added More 41,800 $ 999 $ 12,266
Diam Co Ltd 2016-09-30 286,948 Added More 34,780 $ 831 $ 6,858
Marshall Wace Llp 2016-09-30 1,064,375 Added More 31,034 $ 741 $ 25,438
Zebra Capital Management Llc 2016-09-30 68,855 Added More 26,063 $ 622 $ 1,645
Td Asset Management Inc 2016-09-30 434,883 Added More 25,083 $ 599 $ 10,393
Sei Investments Co 2016-09-30 96,214 Added More 24,777 $ 592 $ 2,299
Keybank National Association Oh 2016-09-30 36,974 Added More 15,815 $ 377 $ 883
Piedmont Investment Advisors Llc 2016-09-30 15,755 Added More 15,700 $ 375 $ 376
Menta Capital Llc 2016-09-30 15,400 New Holding 15,400 $ 368 $ 368
Raymond James Associates 2016-09-30 70,798 Added More 13,344 $ 318 $ 1,692
Algert Global Llc 2016-09-30 42,533 Added More 13,060 $ 312 $ 1,016
Teachers Advisors Inc 2016-09-30 103,009 Added More 12,915 $ 308 $ 2,461
I G Investment Management Ltd 2016-09-30 50,935 Added More 12,464 $ 297 $ 1,217
Amp Capital Investors Ltd 2016-09-30 10,370 New Holding 10,370 $ 247 $ 247
Palisade Capital Management Llc Nj 2016-09-30 516,837 Added More 10,221 $ 244 $ 12,352
Putnam Investments Llc 2016-09-30 136,264 Added More 8,414 $ 201 $ 3,256
Verition Fund Management Llc 2016-09-30 17,984 Added More 7,936 $ 189 $ 429
Fuller Thaler Asset Management Inc 2016-09-30 11,300 Added More 7,300 $ 174 $ 270
Point72 Asia Hong Kong Ltd 2016-09-30 7,268 Added More 7,168 $ 171 $ 173
Advisors Asset Management Inc 2016-09-30 22,259 Added More 6,883 $ 164 $ 531
Cornerstone Capital Management Holdings Llc 2016-09-30 408,819 Added More 6,428 $ 153 $ 9,770
Blackrock Inc 2016-09-30 19,106 Added More 5,210 $ 124 $ 456
Systematic Financial Management Lp 2016-09-30 80,420 Added More 4,940 $ 118 $ 1,922
Ahl Partners Llp 2016-09-30 40,597 Added More 4,910 $ 117 $ 970
Piermont Capital Management Inc 2016-09-30 55,664 Added More 4,890 $ 116 $ 1,330
Acrospire Investment Management Llc 2016-09-30 7,192 Added More 3,100 $ 74 $ 171
Nn Investment Partners Holdings N V 2016-09-30 30,993 Added More 2,715 $ 64 $ 740
Legal General Group Plc 2016-09-30 10,874 Added More 2,414 $ 57 $ 259
California State Teachers Retirement System 2016-09-30 223,064 Added More 1,900 $ 45 $ 5,331
Creative Planning 2016-09-30 2,784 Added More 1,784 $ 42 $ 66
Pacer Advisors Inc 2016-09-30 9,797 Added More 1,495 $ 35 $ 234
Sg Americas Securities Llc 2016-09-30 7,182 Added More 1,255 $ 29 $ 171
Tower Research Capital Llc Trc 2016-09-30 3,177 Added More 755 $ 18 $ 75
Aperio Group Llc 2016-09-30 23,568 Added More 700 $ 16 $ 563
Oshaughnessy Asset Management Llc 2016-09-30 15,929 Added More 564 $ 13 $ 380
Blackrock Investment Management Llc 2016-09-30 40,733 Added More 487 $ 11 $ 973
Zurcher Kantonalbank Zurich Cantonalbank 2016-09-30 4,132 Added More 454 $ 10 $ 98
Denver Investment Advisors Llc 2016-09-30 20,115 Added More 400 $ 9 $ 480
Horizon Kinetics Llc 2016-09-30 18,350 Added More 374 $ 8 $ 438
Bronfman E L Rothschild L P 2016-09-30 1,030 Added More 234 $ 5 $ 24
Lebenthal Asset Management Llc 2016-09-30 181 New Holding 181 $ 4 $ 4
Ifp Advisors Inc 2016-09-30 453 Added More 162 $ 3 $ 10
Veritable L P 2016-09-30 13,223 Added More 132 $ 3 $ 316
Arrowpoint Asset Management Llc 2016-09-30 107 New Holding 107 $ 2 $ 2
Simplex Trading Llc 2016-09-30 135 Added More 100 $ 2 $ 3
Cable Hill Partners Llc 2016-09-30 59 New Holding 59 $ 1 $ 1
Howe Rusling Inc 2016-09-30 43 Added More 18 $ 0 $ 1
Brown Capital Management Llc 2016-09-30 861,729 No Change 0 $ 0 $ 20,595
Strategic Investment Management Llc 2016-09-30 12,282 No Change 0 $ 0 $ 293
Umb Bank N A Mo 2016-09-30 13,925 No Change 0 $ 0 $ 332
Bessemer Group Inc 2016-09-30 21,057 No Change 0 $ 0 $ 503
Gabelli Funds Llc 2016-09-30 18,000 No Change 0 $ 0 $ 430
Northwestern Mutual Wealth Management Co 2016-09-30 107 No Change 0 $ 0 $ 2
Needham Investment Management Llc 2016-09-30 10,000 No Change 0 $ 0 $ 239
Yorktown Management Research Co Inc 2016-09-30 11,000 No Change 0 $ 0 $ 262
Amici Capital Llc 2016-09-30 25,000 No Change 0 $ 0 $ 597
Alpha Windward Llc 2016-09-30 901 No Change 0 $ 0 $ 21
Blb B Advisors Llc 2016-09-30 22,057 No Change 0 $ 0 $ 527
Southeast Asset Advisors Inc 2016-09-30 23,035 No Change 0 $ 0 $ 550
Employees Retirement System Of Texas 2016-09-30 50,000 No Change 0 $ 0 $ 1,195
Sonora Investment Management Llc 2016-09-30 855 No Change 0 $ 0 $ 20
Msi Financial Services Inc 2016-09-30 145 No Change 0 $ 0 $ 3
Utah Retirement Systems 2016-09-30 18,989 No Change 0 $ 0 $ 453
Carleon Capital Partners Llc 2016-09-30 13,928 No Change 0 $ 0 $ 332
Citizens Financial Group Inc Ri 2016-09-30 360 Sold Some -12 $ -0 $ 8
Envestnet Asset Management Inc 2016-09-30 2,053 Sold Some -45 $ -1 $ 49
Checchi Capital Advisers Llc 2016-09-30 0 Sold All -95 $ -2 $ 0
Ftb Advisors Inc 2016-09-30 599 Sold Some -102 $ -2 $ 14
American International Group Inc 2016-09-30 2,471 Sold Some -107 $ -2 $ 59
Kanaly Trust Co 2016-09-30 201 Sold Some -123 $ -2 $ 4
Johnson Financial Group Inc 2016-09-30 550 Sold Some -325 $ -7 $ 13
Ladenburg Thalmann Financial Services Inc 2016-09-30 1,799 Sold Some -433 $ -10 $ 42
New York State Teachers Retirement System 2016-09-30 9,100 Sold Some -500 $ -11 $ 217
Us Bancorp De 2016-09-30 9,104 Sold Some -500 $ -11 $ 217
Ibm Retirement Fund 2016-09-30 9,988 Sold Some -573 $ -13 $ 238
Thompson Rubinstein Investment Management Inc Or 2016-09-30 171,627 Sold Some -673 $ -16 $ 4,101
M T Bank Corp 2016-09-30 10,204 Sold Some -1,846 $ -44 $ 243
Argentus Capital Management Llc 2016-09-30 3,346 Sold Some -2,158 $ -51 $ 79
Walleye Trading Llc 2016-09-30 2,951 Sold Some -2,200 $ -52 $ 70
Springbok Capital Management Llc 2016-09-30 2,700 Sold Some -2,400 $ -57 $ 64
Advisor Group Inc 2016-09-30 712 Sold Some -2,421 $ -57 $ 17
Bluemountain Capital Management Llc 2016-09-30 62,053 Sold Some -2,795 $ -66 $ 1,483
Rhumbline Advisers 2016-09-30 115,156 Sold Some -2,867 $ -68 $ 2,752
Dimensional Fund Advisors Lp 2016-09-30 895,329 Sold Some -3,418 $ -81 $ 21,398
Bokf Na 2016-09-30 20,161 Sold Some -3,500 $ -83 $ 481
Highbridge Capital Management Llc 2016-09-30 30,212 Sold Some -3,763 $ -89 $ 722
Teacher Retirement System Of Texas 2016-09-30 12,115 Sold Some -3,960 $ -94 $ 289
Chilton Capital Management Llc 2016-09-30 118,595 Sold Some -4,135 $ -98 $ 2,834
Meeder Asset Management Inc 2016-09-30 15,438 Sold Some -4,899 $ -117 $ 368
Pnc Financial Services Group Inc 2016-09-30 12,514 Sold Some -5,339 $ -127 $ 299
Alambic Investment Management L P 2016-09-30 12,400 Sold Some -7,550 $ -180 $ 296
Invictus Rg 2016-09-30 6,378 Sold Some -8,627 $ -206 $ 152
Schonfeld Strategic Advisors Llc 2016-09-30 0 Sold All -8,781 $ -209 $ 0
Swiss National Bank 2016-09-30 180,200 Sold Some -8,800 $ -210 $ 4,306
Kbc Group Nv 2016-09-30 47,513 Sold Some -8,998 $ -215 $ 1,135
Bank Of Hawaii 2016-09-30 0 Sold All -9,150 $ -218 $ 0
Dynamic Technology Lab Private Ltd 2016-09-30 9,300 Sold Some -11,351 $ -271 $ 222
Seven Eight Capital Llc 2016-09-30 0 Sold All -11,700 $ -279 $ 0
Her Majesty The Queen In Right Of The Province Of Alberta As 2016-09-30 0 Sold All -12,000 $ -286 $ 0
Quantbot Technologies Lp 2016-09-30 2,202 Sold Some -12,218 $ -292 $ 52
Usa Financial Portformulas Corp 2016-09-30 0 Sold All -12,639 $ -302 $ 0
Hillsdale Investment Management Inc 2016-09-30 1,320 Sold Some -13,100 $ -313 $ 31
Parametric Portfolio Associates Llc 2016-09-30 412,342 Sold Some -13,623 $ -325 $ 9,854
Tlp Group Llc 2016-09-30 7,928 Sold Some -15,148 $ -362 $ 189
Shell Asset Management Co 2016-09-30 30,257 Sold Some -15,150 $ -362 $ 723
Scout Investments Inc 2016-09-30 185,350 Sold Some -15,200 $ -363 $ 4,429
Squarepoint Ops Llc 2016-09-30 0 Sold All -15,500 $ -370 $ 0
Pinebridge Investments L P 2016-09-30 0 Sold All -16,788 $ -401 $ 0
Guggenheim Capital Llc 2016-09-30 45,068 Sold Some -17,768 $ -424 $ 1,077
Pacad Investment Ltd 2016-09-30 3,900 Sold Some -19,300 $ -461 $ 93
Qs Investors Llc 2016-09-30 4,478 Sold Some -20,175 $ -482 $ 107
Malaga Cove Capital Llc 2016-09-30 0 Sold All -21,176 $ -506 $ 0
Tudor Investment Corp Et Al 2016-09-30 0 Sold All -27,700 $ -662 $ 0
Zacks Investment Management 2016-09-30 0 Sold All -32,413 $ -774 $ 0
Capstone Investment Advisors Llc 2016-09-30 0 Sold All -35,850 $ -856 $ 0
Trexquant Investment Lp 2016-09-30 0 Sold All -38,200 $ -912 $ 0
Great Lakes Advisors Llc 2016-09-30 180,506 Sold Some -44,115 $ -1,054 $ 4,314
Wealth Enhancement Advisory Services Llc 2016-09-30 0 Sold All -46,031 $ -1,100 $ 0
Barings Llc 2016-09-30 0 Sold All -48,200 $ -1,151 $ 0
Quantitative Investment Management Llc 2016-09-30 13,900 Sold Some -50,000 $ -1,195 $ 332
Twin Capital Management Inc 2016-09-30 0 Sold All -50,761 $ -1,213 $ 0
Trimtabs Asset Management Llc 2016-09-30 0 Sold All -50,761 $ -1,213 $ 0
Cubist Systematic Strategies Llc 2016-09-30 7,657 Sold Some -51,854 $ -1,239 $ 183
New York State Common Retirement Fund 2016-09-30 350,872 Sold Some -52,000 $ -1,242 $ 8,385
Kcg Holdings Inc 2016-09-30 17,866 Sold Some -52,177 $ -1,247 $ 426
Martingale Asset Management L P 2016-09-30 366,069 Sold Some -53,253 $ -1,272 $ 8,749
Cantab Capital Partners Llp 2016-09-30 0 Sold All -56,612 $ -1,353 $ 0
Pdt Partners Llc 2016-09-30 100,059 Sold Some -61,741 $ -1,475 $ 2,391
Gsa Capital Partners Llp 2016-09-30 83,801 Sold Some -67,189 $ -1,605 $ 2,002
Quadrature Capital Ltd 2016-09-30 0 Sold All -74,197 $ -1,773 $ 0
Skandinaviska Enskilda Banken Ab Publ 2016-09-30 0 Sold All -76,400 $ -1,825 $ 0
Stevens Capital Management Lp 2016-09-30 0 Sold All -94,507 $ -2,258 $ 0
Picton Mahoney Asset Management 2016-09-30 0 Sold All -103,500 $ -2,473 $ 0
Engineers Gate Manager Lp 2016-09-30 0 Sold All -107,343 $ -2,565 $ 0
Nationwide Fund Advisors 2016-09-30 25,544 Sold Some -109,700 $ -2,621 $ 610
Capital Fund Management S A 2016-09-30 349,112 Sold Some -111,339 $ -2,661 $ 8,343
Old Mutual Global Investors Uk Ltd 2016-09-30 153,514 Sold Some -156,549 $ -3,741 $ 3,668
Airain Ltd 2016-09-30 53,009 Sold Some -160,803 $ -3,843 $ 1,266
A R T Advisors Llc 2016-09-30 0 Sold All -163,099 $ -3,898 $ 0
Chicago Equity Partners Llc 2016-09-30 0 Sold All -180,605 $ -4,316 $ 0
Robeco Institutional Asset Management B V 2016-09-30 0 Sold All -188,729 $ -4,510 $ 0
Sensato Investors Llc 2016-09-30 64,092 Sold Some -205,727 $ -4,916 $ 1,531
Westfield Capital Management Co Lp 2016-09-30 380,102 Sold Some -207,135 $ -4,950 $ 9,084
First Quadrant L P Ca 2016-09-30 305,642 Sold Some -220,409 $ -5,267 $ 7,304
Gotham Asset Management Llc 2016-09-30 0 Sold All -251,600 $ -6,013 $ 0
Clinton Group Inc 2016-09-30 94,564 Sold Some -313,356 $ -7,489 $ 2,260
Smith Asset Management Group Lp 2016-09-30 0 Sold All -392,630 $ -9,383 $ 0
Pictet Asset Management Ltd 2016-09-30 10,100 Sold Some -413,900 $ -9,892 $ 241
Lord Abbett Co Llc 2016-09-30 0 Sold All -527,050 $ -12,596 $ 0